Time;durP1;ratioP1;P1;durP2;ratioP2;P2;SDS_P1;SDS_P2;PMS_P1;PMS_P2;Temp;Humidity;BMP_temperature;BMP_pressure;BME280_temperature;BME280_humidity;BME280_pressure;Samples;Min_cycle;Max_cycle;Signal;HPM_P1;HPM_P2
2021/06/24 00:02:21;;;;;;;22.48;14.95;;;;;;;;;;6264990;28;20128;-82
2021/06/24 00:05:22;;;;;;;19.20;13.90;;;;;;;;;;6291966;28;20450;-82
2021/06/24 00:08:24;;;;;;;22.23;14.82;;;;;;;;;;6297297;28;20453;-81
2021/06/24 00:11:26;;;;;;;19.73;14.25;;;;;;;;;;6301926;28;20382;-81
2021/06/24 00:14:28;;;;;;;20.90;14.35;;;;;;;;;;6264764;28;20043;-82
2021/06/24 00:17:29;;;;;;;17.92;13.13;;;;;;;;;;6272098;28;20124;-82
2021/06/24 00:20:31;;;;;;;20.35;13.10;;;;;;;;;;6259997;28;20125;-81
2021/06/24 00:23:33;;;;;;;16.80;12.93;;;;;;;;;;6265616;28;20047;-82
2021/06/24 00:26:35;;;;;;;16.88;13.18;;;;;;;;;;6262033;28;20525;-80
2021/06/24 00:29:37;;;;;;;17.38;12.18;;;;;;;;;;6302019;28;20075;-81
2021/06/24 00:32:39;;;;;;;18.80;12.50;;;;;;;;;;6270742;28;20174;-81
2021/06/24 00:35:41;;;;;;;18.70;12.73;;;;;;;;;;6279022;28;20040;-82
2021/06/24 00:38:43;;;;;;;18.83;12.35;;;;;;;;;;6263774;28;20047;-81
2021/06/24 00:41:45;;;;;;;22.45;14.95;;;;;;;;;;6276996;28;20105;-82
2021/06/24 00:44:46;;;;;;;22.27;15.80;;;;;;;;;;6288409;28;20044;-81
2021/06/24 00:47:48;;;;;;;21.98;15.73;;;;;;;;;;6250975;28;20518;-81
2021/06/24 00:50:50;;;;;;;21.77;15.40;;;;;;;;;;6245577;28;20049;-82
2021/06/24 00:53:52;;;;;;;23.05;16.30;;;;;;;;;;6245197;28;20048;-82
2021/06/24 00:56:54;;;;;;;25.15;16.35;;;;;;;;;;6246640;28;20041;-82
2021/06/24 00:59:57;;;;;;;21.15;14.63;;;;;;;;;;6261869;28;20705;-82
2021/06/24 01:02:58;;;;;;;17.58;13.43;;;;;;;;;;6245657;28;20502;-82
2021/06/24 01:06:00;;;;;;;18.50;13.07;;;;;;;;;;6277842;28;20383;-82
2021/06/24 01:09:02;;;;;;;17.13;12.50;;;;;;;;;;6254212;28;20529;-80
2021/06/24 01:12:07;;;;;;;16.92;12.73;;;;;;;;;;6269253;28;20045;-82
2021/06/24 01:15:09;;;;;;;17.67;13.55;;;;;;;;;;6287020;28;20064;-81
2021/06/24 01:18:11;;;;;;;21.33;14.32;;;;;;;;;;6278754;28;20048;-82
2021/06/24 01:21:13;;;;;;;21.73;15.30;;;;;;;;;;6255946;28;20422;-81
2021/06/24 01:24:17;;;;;;;20.98;14.15;;;;;;;;;;6258479;28;20510;-81
2021/06/24 01:27:19;;;;;;;21.90;14.32;;;;;;;;;;6283680;28;20044;-82
2021/06/24 01:30:21;;;;;;;21.17;14.35;;;;;;;;;;6276207;28;20043;-81
2021/06/24 01:33:28;;;;;;;20.92;14.27;;;;;;;;;;6278961;28;20036;-81
2021/06/24 01:36:32;;;;;;;22.92;15.68;;;;;;;;;;6295401;28;20627;-81
2021/06/24 01:39:35;;;;;;;21.80;15.55;;;;;;;;;;6294188;28;20044;-81
2021/06/24 01:42:37;;;;;;;17.90;14.02;;;;;;;;;;6298595;28;20040;-80
2021/06/24 01:45:50;;;;;;;24.50;14.98;;;;;;;;;;6296935;28;20040;-81
2021/06/24 01:48:53;;;;;;;25.05;14.68;;;;;;;;;;6253665;28;20049;-80
2021/06/24 01:51:54;;;;;;;21.15;13.32;;;;;;;;;;6286556;28;20406;-82
2021/06/24 01:54:56;;;;;;;18.63;13.50;;;;;;;;;;6269320;28;20036;-82
2021/06/24 01:58:05;;;;;;;18.33;13.10;;;;;;;;;;6307434;28;20040;-81
2021/06/24 02:01:26;;;;;;;18.80;11.90;;;;;;;;;;6290144;28;20072;-81
2021/06/24 02:04:35;;;;;;;17.95;12.80;;;;;;;;;;6256835;28;20040;-81
2021/06/24 02:07:39;;;;;;;16.83;11.60;;;;;;;;;;6251374;28;20045;-82
2021/06/24 02:11:02;;;;;;;22.02;11.98;;;;;;;;;;6270717;28;20447;-81
2021/06/24 02:14:05;;;;;;;16.88;11.65;;;;;;;;;;6272621;28;20513;-81
2021/06/24 02:17:08;;;;;;;16.60;12.15;;;;;;;;;;6287585;28;20044;-81
2021/06/24 02:20:14;;;;;;;16.83;12.57;;;;;;;;;;6277796;28;20540;-82
2021/06/24 02:23:23;;;;;;;15.80;12.20;;;;;;;;;;6297051;28;20184;-82
2021/06/24 02:26:35;;;;;;;20.92;12.60;;;;;;;;;;6294351;28;20497;-82
2021/06/24 02:29:59;;;;;;;17.70;12.63;;;;;;;;;;6296222;28;20051;-83
2021/06/24 02:33:00;;;;;;;17.77;13.45;;;;;;;;;;6295826;28;20041;-82
2021/06/24 02:36:03;;;;;;;19.65;13.02;;;;;;;;;;6275515;28;20561;-83
2021/06/24 02:39:11;;;;;;;18.80;12.32;;;;;;;;;;6275988;28;20124;-82
2021/06/24 02:42:16;;;;;;;17.80;12.88;;;;;;;;;;6275688;28;20047;-83
2021/06/24 02:45:18;;;;;;;17.35;12.48;;;;;;;;;;6300086;28;20063;-82
2021/06/24 02:48:21;;;;;;;20.48;14.65;;;;;;;;;;6281269;28;20052;-83
2021/06/24 02:51:24;;;;;;;21.55;14.57;;;;;;;;;;6276122;28;20040;-83
2021/06/24 02:54:41;;;;;;;19.25;13.55;;;;;;;;;;6275926;28;20048;-83
2021/06/24 02:57:45;;;;;;;22.70;14.90;;;;;;;;;;6255374;28;20048;-81
2021/06/24 03:01:08;;;;;;;24.88;15.88;;;;;;;;;;6277470;28;20048;-81
2021/06/24 03:04:23;;;;;;;20.58;13.60;;;;;;;;;;6237446;28;20502;-82
2021/06/24 03:07:24;;;;;;;19.77;12.20;;;;;;;;;;6273039;28;20079;-83
2021/06/24 03:10:49;;;;;;;17.30;12.85;;;;;;;;;;6288416;28;20056;-81
2021/06/24 03:13:51;;;;;;;20.75;13.55;;;;;;;;;;6274921;28;20048;-81
2021/06/24 03:16:58;;;;;;;16.85;12.05;;;;;;;;;;6264816;28;20047;-81
2021/06/24 03:20:03;;;;;;;18.10;12.27;;;;;;;;;;6285048;28;20044;-82
2021/06/24 03:23:05;;;;;;;16.95;12.80;;;;;;;;;;6272077;28;20110;-83
2021/06/24 03:26:09;;;;;;;25.73;15.85;;;;;;;;;;6247906;28;20059;-83
2021/06/24 03:29:11;;;;;;;27.08;16.70;;;;;;;;;;6266341;28;20044;-82
2021/06/24 03:32:23;;;;;;;26.83;16.10;;;;;;;;;;6292208;28;20434;-82
2021/06/24 03:35:26;;;;;;;25.15;16.73;;;;;;;;;;6295425;28;20040;-81
2021/06/24 03:38:27;;;;;;;25.23;17.02;;;;;;;;;;6268792;28;20185;-83
2021/06/24 03:41:30;;;;;;;23.92;15.20;;;;;;;;;;6252323;28;20044;-81
2021/06/24 03:44:33;;;;;;;21.50;15.25;;;;;;;;;;6242240;28;20044;-83
2021/06/24 03:47:35;;;;;;;26.67;15.60;;;;;;;;;;6285795;28;20044;-82
2021/06/24 03:50:37;;;;;;;28.58;15.98;;;;;;;;;;6310461;28;20040;-81
2021/06/24 03:53:39;;;;;;;23.42;15.40;;;;;;;;;;6295997;28;20036;-82
2021/06/24 03:56:40;;;;;;;24.70;15.65;;;;;;;;;;6257346;28;20051;-83
2021/06/24 03:59:53;;;;;;;22.52;14.85;;;;;;;;;;6246685;28;20036;-83
2021/06/24 04:02:55;;;;;;;22.98;13.70;;;;;;;;;;6266416;28;20052;-83
2021/06/24 04:06:07;;;;;;;24.90;14.68;;;;;;;;;;6298420;28;20036;-83
2021/06/24 04:09:11;;;;;;;23.38;13.93;;;;;;;;;;6296723;28;20044;-83
2021/06/24 04:12:13;;;;;;;20.50;14.18;;;;;;;;;;6270041;28;20049;-83
2021/06/24 04:15:38;;;;;;;32.00;20.30;;;;;;;;;;6244771;28;20045;-83
2021/06/24 04:18:40;;;;;;;26.52;16.58;;;;;;;;;;6263000;28;20406;-82
2021/06/24 04:21:41;;;;;;;21.48;15.75;;;;;;;;;;6245912;28;20052;-82
2021/06/24 04:24:46;;;;;;;28.98;20.63;;;;;;;;;;6262610;28;20041;-83
2021/06/24 04:27:49;;;;;;;27.63;19.70;;;;;;;;;;6247192;28;20045;-82
2021/06/24 04:30:53;;;;;;;20.42;15.38;;;;;;;;;;6262634;28;20049;-82
2021/06/24 04:33:56;;;;;;;18.27;14.55;;;;;;;;;;6253487;28;20052;-82
2021/06/24 04:37:05;;;;;;;22.40;14.25;;;;;;;;;;6255419;28;20075;-83
2021/06/24 04:40:10;;;;;;;17.58;13.57;;;;;;;;;;6270154;28;20769;-82
2021/06/24 04:43:21;;;;;;;17.20;13.45;;;;;;;;;;6262404;28;20045;-83
2021/06/24 04:46:23;;;;;;;15.93;12.38;;;;;;;;;;6254135;28;20749;-82
2021/06/24 04:49:25;;;;;;;17.45;12.40;;;;;;;;;;6263017;28;20582;-82
2021/06/24 04:52:54;;;;;;;21.10;15.23;;;;;;;;;;6287374;28;20565;-83
2021/06/24 04:56:03;;;;;;;21.92;14.10;;;;;;;;;;6263481;28;20048;-83
2021/06/24 04:59:07;;;;;;;21.02;14.05;;;;;;;;;;6279937;28;20040;-82
2021/06/24 05:02:27;;;;;;;19.20;14.23;;;;;;;;;;6298850;28;20409;-83
2021/06/24 05:05:53;;;;;;;19.63;14.68;;;;;;;;;;6274025;28;20052;-83
2021/06/24 05:08:54;;;;;;;20.75;14.95;;;;;;;;;;6263418;28;20145;-82
2021/06/24 05:11:56;;;;;;;18.10;13.75;;;;;;;;;;6243420;28;20041;-82
2021/06/24 05:15:00;;;;;;;19.00;14.25;;;;;;;;;;6244027;28;20040;-83
2021/06/24 05:18:03;;;;;;;17.85;13.88;;;;;;;;;;6264606;28;20512;-82
2021/06/24 05:21:04;;;;;;;;;;;;;;;;;;6269388;28;20037;-83
2021/06/24 05:24:08;;;;;;;19.50;13.70;;;;;;;;;;6269184;28;19930;-83
2021/06/24 05:27:10;;;;;;;18.65;14.25;;;;;;;;;;6287029;28;20044;-83
2021/06/24 05:30:11;;;;;;;22.05;13.77;;;;;;;;;;6287364;28;20128;-82
2021/06/24 05:33:14;;;;;;;19.50;14.05;;;;;;;;;;6271189;28;20044;-83
2021/06/24 05:36:16;;;;;;;20.42;13.32;;;;;;;;;;6293815;28;20050;-83
2021/06/24 05:39:17;;;;;;;22.63;14.80;;;;;;;;;;6289451;28;20052;-83
2021/06/24 05:42:19;;;;;;;21.75;14.43;;;;;;;;;;6304881;28;20424;-82
2021/06/24 05:45:27;;;;;;;22.00;14.77;;;;;;;;;;6313850;28;20047;-82
2021/06/24 05:48:32;;;;;;;25.13;16.42;;;;;;;;;;6288235;28;20045;-84
2021/06/24 05:51:34;;;;;;;24.70;17.00;;;;;;;;;;6288663;28;20045;-83
2021/06/24 05:54:36;;;;;;;28.13;18.15;;;;;;;;;;6289778;28;20041;-84
2021/06/24 05:57:37;;;;;;;27.33;17.20;;;;;;;;;;6288865;28;20551;-84
2021/06/24 06:00:39;;;;;;;24.67;17.75;;;;;;;;;;6271526;28;20086;-85
2021/06/24 06:03:41;;;;;;;23.83;16.37;;;;;;;;;;6288378;28;20066;-84
2021/06/24 06:06:43;;;;;;;22.40;15.32;;;;;;;;;;6258805;28;20040;-84
2021/06/24 06:09:45;;;;;;;23.55;15.57;;;;;;;;;;6292355;28;20099;-85
2021/06/24 06:12:47;;;;;;;22.15;15.38;;;;;;;;;;6280814;28;20037;-84
2021/06/24 06:15:49;;;;;;;32.08;15.77;;;;;;;;;;6297258;28;20051;-85
2021/06/24 06:18:52;;;;;;;24.80;15.35;;;;;;;;;;6280283;28;20048;-85
2021/06/24 06:21:54;;;;;;;21.33;15.07;;;;;;;;;;6316819;28;20473;-85
2021/06/24 06:24:55;;;;;;;20.67;13.55;;;;;;;;;;6323308;28;20519;-85
2021/06/24 06:27:58;;;;;;;18.23;12.82;;;;;;;;;;6299388;28;20108;-84
2021/06/24 06:30:59;;;;;;;18.65;13.30;;;;;;;;;;6294504;28;20497;-84
2021/06/24 06:34:01;;;;;;;20.63;13.55;;;;;;;;;;6277574;28;20032;-84
2021/06/24 06:37:03;;;;;;;20.02;12.60;;;;;;;;;;6278068;28;20394;-84
2021/06/24 06:40:06;;;;;;;17.67;11.38;;;;;;;;;;6266452;28;20048;-83
2021/06/24 06:43:08;;;;;;;15.90;10.10;;;;;;;;;;6284549;28;20123;-84
2021/06/24 06:46:09;;;;;;;12.48;9.93;;;;;;;;;;6291226;28;20056;-85
2021/06/24 06:49:11;;;;;;;16.35;10.27;;;;;;;;;;6251396;28;20045;-84
2021/06/24 06:52:13;;;;;;;13.57;9.77;;;;;;;;;;6265175;28;20040;-84
2021/06/24 06:55:14;;;;;;;16.70;10.80;;;;;;;;;;6254618;28;20055;-83
2021/06/24 06:58:16;;;;;;;15.35;9.45;;;;;;;;;;6291220;28;20527;-84
2021/06/24 07:01:18;;;;;;;14.20;10.15;;;;;;;;;;6292731;28;20064;-84
2021/06/24 07:04:21;;;;;;;13.38;9.75;;;;;;;;;;6275658;28;20048;-84
2021/06/24 07:07:22;;;;;;;13.27;8.90;;;;;;;;;;6292588;28;20072;-84
2021/06/24 07:10:24;;;;;;;15.65;9.95;;;;;;;;;;6296978;28;20064;-84
2021/06/24 07:13:26;;;;;;;12.20;9.40;;;;;;;;;;6292048;28;20387;-85
2021/06/24 07:16:28;;;;;;;14.57;9.95;;;;;;;;;;6256724;28;20069;-85
2021/06/24 07:19:29;;;;;;;13.55;9.60;;;;;;;;;;6278023;28;20045;-86
2021/06/24 07:22:31;;;;;;;13.45;9.68;;;;;;;;;;6274654;28;20124;-85
2021/06/24 07:25:33;;;;;;;12.02;8.07;;;;;;;;;;6284363;28;20456;-85
2021/06/24 07:28:35;;;;;;;18.13;9.63;;;;;;;;;;6322724;28;20068;-85
2021/06/24 07:31:36;;;;;;;15.15;9.60;;;;;;;;;;6339849;28;20068;-85
2021/06/24 07:34:38;;;;;;;14.02;8.90;;;;;;;;;;6328566;28;20054;-86
2021/06/24 07:37:42;;;;;;;12.90;8.82;;;;;;;;;;6285253;28;20048;-85
2021/06/24 07:40:43;;;;;;;11.18;8.25;;;;;;;;;;6289266;28;20067;-85
2021/06/24 07:43:45;;;;;;;10.82;8.48;;;;;;;;;;6262936;28;20515;-84
2021/06/24 07:46:46;;;;;;;10.63;8.82;;;;;;;;;;6290922;28;20082;-83
2021/06/24 07:49:48;;;;;;;10.90;8.88;;;;;;;;;;6276791;28;20170;-83
2021/06/24 07:52:50;;;;;;;12.98;8.98;;;;;;;;;;6269297;28;20455;-84
2021/06/24 07:55:51;;;;;;;12.88;8.63;;;;;;;;;;6283915;28;20048;-83
2021/06/24 07:58:53;;;;;;;9.77;7.97;;;;;;;;;;6285434;28;20149;-84
2021/06/24 08:01:55;;;;;;;9.85;8.50;;;;;;;;;;6291290;28;20037;-82
2021/06/24 08:04:57;;;;;;;13.63;8.82;;;;;;;;;;6289444;28;20107;-83
2021/06/24 08:07:58;;;;;;;9.70;8.65;;;;;;;;;;6273671;28;20409;-84
2021/06/24 08:11:00;;;;;;;11.15;8.70;;;;;;;;;;6267876;28;20517;-83
2021/06/24 08:14:02;;;;;;;9.48;8.45;;;;;;;;;;6288847;28;20040;-84
2021/06/24 08:17:03;;;;;;;13.10;8.38;;;;;;;;;;6281628;28;20505;-83
2021/06/24 08:20:07;;;;;;;10.50;8.45;;;;;;;;;;6288747;28;20044;-83
2021/06/24 08:23:09;;;;;;;9.77;8.00;;;;;;;;;;6290258;28;20044;-83
2021/06/24 08:26:10;;;;;;;9.43;7.83;;;;;;;;;;6247171;28;20130;-84
2021/06/24 08:29:12;;;;;;;215.57;141.68;;;;;;;;;;6265195;28;20155;-83
2021/06/24 08:32:13;;;;;;;62.42;23.85;;;;;;;;;;6247742;28;20179;-84
2021/06/24 08:35:16;;;;;;;61.35;19.95;;;;;;;;;;6265700;28;20040;-83
2021/06/24 08:38:18;;;;;;;11.80;8.75;;;;;;;;;;6290201;28;20044;-84
2021/06/24 08:41:32;;;;;;;9.45;8.38;;;;;;;;;;6283621;28;20511;-83
2021/06/24 08:44:33;;;;;;;11.73;8.43;;;;;;;;;;6296265;28;20169;-85
2021/06/24 08:47:36;;;;;;;13.02;8.45;;;;;;;;;;6288863;28;20520;-83
2021/06/24 08:50:37;;;;;;;10.35;8.20;;;;;;;;;;6289170;28;20044;-85
2021/06/24 08:53:41;;;;;;;11.98;8.85;;;;;;;;;;6290028;28;20056;-82
2021/06/24 08:56:42;;;;;;;11.23;8.23;;;;;;;;;;6288794;28;20047;-83
2021/06/24 08:59:44;;;;;;;11.52;8.55;;;;;;;;;;6271535;28;20066;-83
2021/06/24 09:02:47;;;;;;;12.07;8.35;;;;;;;;;;6289441;28;20040;-83
2021/06/24 09:06:09;;;;;;;9.95;8.07;;;;;;;;;;6288822;28;20118;-82
2021/06/24 09:09:24;;;;;;;11.32;7.88;;;;;;;;;;6287639;28;20577;-82
2021/06/24 09:12:26;;;;;;;10.23;7.57;;;;;;;;;;6289651;28;20033;-85
2021/06/24 09:15:35;;;;;;;12.30;7.70;;;;;;;;;;6272761;28;20053;-82
2021/06/24 09:18:37;;;;;;;8.68;7.75;;;;;;;;;;6291463;28;20036;-85
2021/06/24 09:21:44;;;;;;;11.60;8.23;;;;;;;;;;6313111;28;20040;-82
2021/06/24 09:24:48;;;;;;;11.88;8.32;;;;;;;;;;6298182;28;20052;-82
2021/06/24 09:27:50;;;;;;;11.48;7.90;;;;;;;;;;6293774;28;20054;-84
2021/06/24 09:30:52;;;;;;;11.73;7.88;;;;;;;;;;6274563;28;20045;-83
2021/06/24 09:34:04;;;;;;;9.80;7.33;;;;;;;;;;6274992;28;20036;-83
2021/06/24 09:37:06;;;;;;;11.17;8.00;;;;;;;;;;6258644;28;20086;-84
2021/06/24 09:40:12;;;;;;;9.07;7.95;;;;;;;;;;6273269;28;20529;-83
2021/06/24 09:43:34;;;;;;;10.23;8.45;;;;;;;;;;6288997;28;20152;-82
2021/06/24 09:46:37;;;;;;;8.65;7.78;;;;;;;;;;6274445;28;20048;-83
2021/06/24 09:49:38;;;;;;;11.77;7.63;;;;;;;;;;6288924;28;20047;-83
2021/06/24 09:52:40;;;;;;;11.43;8.35;;;;;;;;;;6292035;28;20104;-82
2021/06/24 09:55:42;;;;;;;12.35;8.23;;;;;;;;;;6275230;28;20062;-84
2021/06/24 09:58:47;;;;;;;10.27;7.72;;;;;;;;;;6259508;28;20045;-84
2021/06/24 10:01:50;;;;;;;13.70;8.65;;;;;;;;;;6275873;28;20037;-84
2021/06/24 10:04:52;;;;;;;12.27;8.30;;;;;;;;;;6293972;28;20040;-83
2021/06/24 10:07:53;;;;;;;12.77;8.23;;;;;;;;;;6274750;28;20052;-83
2021/06/24 10:10:55;;;;;;;10.07;8.27;;;;;;;;;;6301403;28;20093;-84
2021/06/24 10:13:56;;;;;;;9.35;7.57;;;;;;;;;;6303458;28;20526;-83
2021/06/24 10:17:00;;;;;;;11.02;7.63;;;;;;;;;;6318357;28;20119;-83
2021/06/24 10:20:02;;;;;;;10.15;7.72;;;;;;;;;;6315927;28;20538;-82
2021/06/24 10:23:10;;;;;;;9.83;7.63;;;;;;;;;;6300707;28;20040;-83
2021/06/24 10:26:12;;;;;;;9.20;7.53;;;;;;;;;;6298253;28;20085;-83
2021/06/24 10:29:18;;;;;;;;;;;;;;;;;;6304366;28;20221;-85
2021/06/24 10:32:25;;;;;;;9.88;7.85;;;;;;;;;;6283896;28;19924;-84
2021/06/24 10:35:31;;;;;;;9.23;7.38;;;;;;;;;;6290674;28;20044;-83
2021/06/24 10:38:41;;;;;;;11.18;7.25;;;;;;;;;;6229792;28;20046;-83
2021/06/24 10:42:06;;;;;;;11.07;7.50;;;;;;;;;;6267088;28;20655;-83
2021/06/24 10:45:15;;;;;;;9.50;7.57;;;;;;;;;;6276015;28;20051;-85
2021/06/24 10:48:31;;;;;;;9.07;7.43;;;;;;;;;;6269662;28;20135;-83
2021/06/24 10:51:34;;;;;;;8.40;7.05;;;;;;;;;;6272537;28;20159;-82
2021/06/24 10:54:45;;;;;;;7.90;7.10;;;;;;;;;;6291536;28;20413;-83
2021/06/24 10:57:46;;;;;;;8.10;7.30;;;;;;;;;;6290648;28;20509;-82
2021/06/24 11:00:50;;;;;;;10.30;7.57;;;;;;;;;;6273719;28;20064;-84
2021/06/24 11:03:53;;;;;;;8.45;7.53;;;;;;;;;;6292649;28;20497;-84
2021/06/24 11:06:56;;;;;;;9.82;7.35;;;;;;;;;;6257663;28;20045;-85
2021/06/24 11:10:21;;;;;;;11.00;8.00;;;;;;;;;;6269476;28;20135;-86
2021/06/24 11:13:35;;;;;;;12.43;7.78;;;;;;;;;;6270567;28;20616;-85
2021/06/24 11:16:36;;;;;;;11.45;7.97;;;;;;;;;;6254479;28;20120;-85
2021/06/24 11:20:14;;;;;;;10.07;7.95;;;;;;;;;;6285984;28;20040;-86
2021/06/24 11:23:28;;;;;;;8.57;7.45;;;;;;;;;;6303741;28;20054;-86
2021/06/24 11:26:32;;;;;;;10.43;8.00;;;;;;;;;;6300852;28;20059;-86
2021/06/24 11:29:44;;;;;;;8.43;7.63;;;;;;;;;;6303043;28;20106;-85
2021/06/24 11:32:50;;;;;;;9.83;7.43;;;;;;;;;;6298756;28;20079;-85
2021/06/24 11:36:09;;;;;;;9.70;8.05;;;;;;;;;;6261904;28;20045;-84
2021/06/24 11:39:11;;;;;;;10.13;8.00;;;;;;;;;;6274089;28;20048;-86
2021/06/24 11:42:18;;;;;;;10.63;8.63;;;;;;;;;;6264200;28;20052;-86
2021/06/24 11:45:23;;;;;;;11.35;8.68;;;;;;;;;;6251635;28;20071;-87
2021/06/24 11:48:26;;;;;;;10.27;8.40;;;;;;;;;;6250336;28;20391;-87
2021/06/24 12:04:34;;;;;;;13.05;9.27;;;;;;;;;;6273568;28;20045;-85
2021/06/24 12:07:37;;;;;;;12.88;9.23;;;;;;;;;;6246269;28;20037;-85
2021/06/24 12:10:38;;;;;;;12.27;9.65;;;;;;;;;;6267889;28;20803;-86
2021/06/24 12:13:43;;;;;;;16.50;9.95;;;;;;;;;;6273853;28;20050;-87
2021/06/24 12:17:03;;;;;;;12.63;10.30;;;;;;;;;;6274935;28;20441;-86
2021/06/24 12:20:12;;;;;;;13.13;10.50;;;;;;;;;;6257162;28;20053;-84
2021/06/24 12:23:14;;;;;;;12.05;10.73;;;;;;;;;;6246883;28;20146;-84
2021/06/24 12:26:19;;;;;;;15.30;10.63;;;;;;;;;;6274438;28;20515;-83
2021/06/24 12:29:20;;;;;;;12.50;11.00;;;;;;;;;;6289407;28;20488;-83
2021/06/24 12:32:24;;;;;;;12.80;10.85;;;;;;;;;;6272194;28;20067;-82
2021/06/24 12:35:31;;;;;;;18.10;12.45;;;;;;;;;;6288481;28;20123;-82
2021/06/24 12:38:34;;;;;;;17.55;11.60;;;;;;;;;;6272394;28;20049;-81
2021/06/24 12:41:36;;;;;;;17.75;13.05;;;;;;;;;;6279612;28;20057;-80
2021/06/24 12:44:39;;;;;;;16.45;12.88;;;;;;;;;;6247237;28;20174;-84
2021/06/24 12:47:44;;;;;;;21.45;12.80;;;;;;;;;;6283618;28;20054;-83
2021/06/24 12:50:45;;;;;;;17.23;12.95;;;;;;;;;;6273058;28;20117;-85
2021/06/24 12:53:53;;;;;;;18.00;13.10;;;;;;;;;;6272285;28;20149;-85
2021/06/24 12:56:55;;;;;;;17.75;12.98;;;;;;;;;;6289274;28;20107;-84
2021/06/24 12:59:58;;;;;;;19.10;13.10;;;;;;;;;;6314027;28;20040;-82
2021/06/24 13:03:00;;;;;;;17.33;11.38;;;;;;;;;;6311996;28;20086;-81
2021/06/24 13:06:12;;;;;;;12.98;10.68;;;;;;;;;;6271790;28;20052;-81
2021/06/24 13:09:36;;;;;;;12.25;10.10;;;;;;;;;;6273132;28;20135;-82
2021/06/24 13:12:47;;;;;;;12.30;10.15;;;;;;;;;;6260999;28;20175;-83
2021/06/24 13:15:49;;;;;;;15.30;10.02;;;;;;;;;;6265118;28;20049;-83
2021/06/24 13:18:56;;;;;;;14.25;9.73;;;;;;;;;;6289886;28;20126;-82
2021/06/24 13:22:03;;;;;;;14.18;10.10;;;;;;;;;;6266997;28;20079;-83
2021/06/24 13:25:05;;;;;;;12.48;9.68;;;;;;;;;;6255599;28;20125;-83
2021/06/24 13:28:08;;;;;;;14.38;9.57;;;;;;;;;;6241971;28;20037;-83
2021/06/24 13:31:10;;;;;;;12.52;9.48;;;;;;;;;;6278830;28;20052;-82
2021/06/24 13:34:14;;;;;;;11.05;9.52;;;;;;;;;;6280578;28;20035;-82
2021/06/24 13:37:18;;;;;;;13.68;9.70;;;;;;;;;;6266372;28;20064;-83
2021/06/24 13:40:24;;;;;;;11.25;9.82;;;;;;;;;;6272707;28;20051;-84
2021/06/24 13:43:27;;;;;;;14.00;10.07;;;;;;;;;;6298817;28;20036;-83
2021/06/24 13:46:29;;;;;;;;;;;;;;;;;;6310668;28;20041;-84
2021/06/24 13:49:31;;;;;;;11.15;9.43;;;;;;;;;;6291842;28;19927;-83
2021/06/24 13:52:33;;;;;;;11.20;9.45;;;;;;;;;;6295947;28;20036;-82
2021/06/24 13:55:38;;;;;;;10.50;7.07;;;;;;;;;;6283907;28;20052;-83
2021/06/24 13:58:39;;;;;;;14.93;7.10;;;;;;;;;;6270128;28;20128;-81
2021/06/24 14:01:45;;;;;;;5.80;5.22;;;;;;;;;;6258608;28;20040;-81
2021/06/24 14:04:47;;;;;;;6.60;4.80;;;;;;;;;;6257093;28;20052;-83
2021/06/24 14:07:48;;;;;;;7.15;5.40;;;;;;;;;;6257468;28;20139;-83
2021/06/24 14:10:50;;;;;;;6.07;5.47;;;;;;;;;;6262979;28;20394;-82
2021/06/24 14:13:53;;;;;;;7.60;5.05;;;;;;;;;;6283046;28;20047;-82
2021/06/24 14:16:54;;;;;;;6.68;4.78;;;;;;;;;;6283070;28;20523;-81
2021/06/24 14:19:56;;;;;;;7.90;4.43;;;;;;;;;;6281316;28;20048;-82
2021/06/24 14:22:58;;;;;;;5.50;4.20;;;;;;;;;;6283614;28;20048;-82
2021/06/24 14:26:00;;;;;;;5.82;5.03;;;;;;;;;;6282766;28;20036;-83
2021/06/24 14:29:03;;;;;;;5.20;4.70;;;;;;;;;;6284831;28;20075;-82
2021/06/24 14:32:05;;;;;;;4.93;4.43;;;;;;;;;;6277585;28;20090;-84
2021/06/24 14:35:07;;;;;;;5.15;4.57;;;;;;;;;;6263977;28;20107;-86
2021/06/24 14:38:09;;;;;;;5.47;4.18;;;;;;;;;;6263023;28;20049;-83
2021/06/24 14:41:12;;;;;;;6.47;4.65;;;;;;;;;;6271659;28;20055;-83
2021/06/24 14:44:13;;;;;;;;;;;;;;;;;;6289727;28;20044;-83
2021/06/24 14:47:15;;;;;;;4.82;4.35;;;;;;;;;;6273642;28;20011;-82
2021/06/24 14:50:17;;;;;;;6.45;4.35;;;;;;;;;;6284009;28;20049;-83
2021/06/24 14:53:19;;;;;;;4.40;3.80;;;;;;;;;;6289274;28;20529;-83
2021/06/24 14:56:21;;;;;;;6.95;4.30;;;;;;;;;;6286266;28;20048;-83
2021/06/24 14:59:22;;;;;;;4.78;3.75;;;;;;;;;;6295900;28;20040;-82
2021/06/24 15:02:24;;;;;;;5.03;4.00;;;;;;;;;;6291795;28;20066;-82
2021/06/24 15:05:27;;;;;;;4.90;3.97;;;;;;;;;;6289678;28;20037;-82
2021/06/24 15:08:28;;;;;;;;;;;;;;;;;;6291347;28;20037;-82
2021/06/24 15:11:30;;;;;;;4.75;3.50;;;;;;;;;;6291337;28;19927;-82
2021/06/24 15:14:31;;;;;;;5.32;4.30;;;;;;;;;;6268133;28;20494;-82
2021/06/24 15:17:33;;;;;;;4.20;3.80;;;;;;;;;;6253251;28;20494;-81
2021/06/24 15:20:35;;;;;;;4.55;4.10;;;;;;;;;;6280775;28;20049;-81
2021/06/24 15:23:37;;;;;;;4.72;3.90;;;;;;;;;;6261129;28;20101;-80
2021/06/24 15:26:40;;;;;;;5.68;3.88;;;;;;;;;;6263329;28;20075;-82
2021/06/24 15:29:42;;;;;;;4.85;4.35;;;;;;;;;;6260976;28;20040;-82
2021/06/24 15:32:44;;;;;;;5.00;4.50;;;;;;;;;;6257793;28;20041;-81
2021/06/24 15:35:46;;;;;;;4.35;3.95;;;;;;;;;;6261956;28;20151;-82
2021/06/24 15:38:47;;;;;;;5.18;4.45;;;;;;;;;;6278391;28;20041;-81
2021/06/24 15:41:49;;;;;;;6.18;4.85;;;;;;;;;;6309431;28;20048;-81
2021/06/24 15:44:51;;;;;;;5.05;4.55;;;;;;;;;;6255148;28;20131;-81
2021/06/24 15:47:54;;;;;;;5.65;4.50;;;;;;;;;;6279248;28;20620;-82
2021/06/24 15:50:56;;;;;;;5.28;4.78;;;;;;;;;;6288040;28;20053;-82
2021/06/24 15:53:58;;;;;;;5.63;4.35;;;;;;;;;;6287673;28;20051;-81
2021/06/24 15:56:59;;;;;;;4.85;4.20;;;;;;;;;;6283451;28;20048;-81
2021/06/24 16:00:04;;;;;;;5.88;4.25;;;;;;;;;;6265798;28;20126;-81
2021/06/24 16:03:06;;;;;;;5.25;4.00;;;;;;;;;;6285411;28;20422;-81
2021/06/24 16:06:07;;;;;;;5.15;3.90;;;;;;;;;;6283401;28;20050;-81
2021/06/24 16:09:09;;;;;;;8.57;4.25;;;;;;;;;;6303549;28;20060;-81
2021/06/24 16:12:11;;;;;;;7.65;4.35;;;;;;;;;;6253330;28;20128;-81
2021/06/24 16:15:13;;;;;;;4.43;4.03;;;;;;;;;;6262828;28;20067;-81
2021/06/24 16:18:14;;;;;;;6.30;5.10;;;;;;;;;;6281014;28;20725;-81
2021/06/24 16:21:16;;;;;;;6.07;4.93;;;;;;;;;;6243275;28;20526;-81
2021/06/24 16:24:19;;;;;;;6.78;5.25;;;;;;;;;;6262014;28;20049;-80
2021/06/24 16:27:20;;;;;;;5.07;4.30;;;;;;;;;;6244407;28;20049;-81
2021/06/24 16:30:24;;;;;;;6.70;6.00;;;;;;;;;;6261206;28;20045;-81
2021/06/24 16:33:26;;;;;;;6.72;5.35;;;;;;;;;;6261824;28;20048;-81
2021/06/24 16:36:28;;;;;;;6.63;5.78;;;;;;;;;;6308778;28;20040;-81
2021/06/24 16:39:33;;;;;;;6.33;5.43;;;;;;;;;;6285841;28;20127;-81
2021/06/24 16:42:35;;;;;;;7.40;5.68;;;;;;;;;;6303593;28;20047;-81
2021/06/24 16:45:37;;;;;;;6.63;5.00;;;;;;;;;;6309382;28;20067;-81
2021/06/24 16:48:39;;;;;;;5.47;4.97;;;;;;;;;;6306477;28;20124;-80
2021/06/24 16:51:43;;;;;;;6.00;5.03;;;;;;;;;;6309978;28;20432;-81
2021/06/24 16:54:45;;;;;;;6.30;5.25;;;;;;;;;;6277348;28;20051;-82
2021/06/24 16:57:46;;;;;;;5.78;5.18;;;;;;;;;;6266147;28;20135;-80
2021/06/24 17:00:48;;;;;;;5.68;5.10;;;;;;;;;;6247538;28;20155;-81
2021/06/24 17:03:50;;;;;;;5.53;4.55;;;;;;;;;;6266181;28;20041;-82
2021/06/24 17:06:52;;;;;;;5.28;4.75;;;;;;;;;;6273100;28;20425;-81
2021/06/24 17:09:53;;;;;;;6.30;4.83;;;;;;;;;;6280273;28;20568;-81
2021/06/24 17:12:55;;;;;;;6.45;4.85;;;;;;;;;;6289438;28;20124;-82
2021/06/24 17:15:57;;;;;;;5.97;5.03;;;;;;;;;;6270938;28;20049;-81
2021/06/24 17:18:58;;;;;;;6.38;5.00;;;;;;;;;;6280723;28;20040;-81
2021/06/24 17:22:01;;;;;;;6.18;4.85;;;;;;;;;;6287780;28;20182;-81
2021/06/24 17:25:04;;;;;;;6.22;5.15;;;;;;;;;;6263901;28;20037;-81
2021/06/24 17:28:05;;;;;;;;;;;;;;;;;;6280176;28;20508;-80
2021/06/24 17:31:08;;;;;;;7.13;5.70;;;;;;;;;;6268276;28;20002;-81
2021/06/24 17:34:10;;;;;;;6.72;5.80;;;;;;;;;;6260186;28;20040;-80
2021/06/24 17:37:11;;;;;;;7.50;5.80;;;;;;;;;;6268531;28;20041;-81
2021/06/24 17:40:14;;;;;;;8.40;6.43;;;;;;;;;;6269930;28;20140;-81
2021/06/24 17:43:16;;;;;;;;;;;;;;;;;;6260843;28;20752;-81
2021/06/24 17:46:18;;;;;;;6.20;5.53;;;;;;;;;;6259333;28;20451;-79
2021/06/24 17:49:19;;;;;;;7.07;5.65;;;;;;;;;;6260061;28;20055;-82
2021/06/24 17:52:21;;;;;;;9.27;5.93;;;;;;;;;;6283871;28;20040;-80
2021/06/24 17:55:23;;;;;;;7.65;6.40;;;;;;;;;;6284353;28;20509;-81
2021/06/24 17:58:25;;;;;;;6.70;5.57;;;;;;;;;;6284762;28;20663;-81
2021/06/24 18:01:29;;;;;;;7.25;5.63;;;;;;;;;;6283130;28;20063;-81
2021/06/24 18:04:31;;;;;;;6.80;5.22;;;;;;;;;;6265998;28;20048;-82
2021/06/24 18:07:33;;;;;;;7.28;6.07;;;;;;;;;;6260998;28;20045;-82
2021/06/24 18:10:40;;;;;;;6.33;5.73;;;;;;;;;;6262219;28;20086;-82
2021/06/24 18:13:41;;;;;;;8.05;5.50;;;;;;;;;;6290009;28;20036;-82
2021/06/24 18:16:43;;;;;;;6.03;5.43;;;;;;;;;;6289154;28;20040;-81
2021/06/24 18:19:46;;;;;;;7.30;5.55;;;;;;;;;;6281404;28;20044;-80
2021/06/24 18:22:47;;;;;;;6.88;6.05;;;;;;;;;;6263871;28;20052;-80